Time;durP1;ratioP1;P1;durP2;ratioP2;P2;SDS_P1;SDS_P2;PMS_P1;PMS_P2;Temp;Humidity;BMP_temperature;BMP_pressure;BME280_temperature;BME280_humidity;BME280_pressure;Samples;Min_cycle;Max_cycle;Signal;HPM_P1;HPM_P2
2024/01/24 00:00:05;;;;;;;25.60;2.97;;;10.60;99.90;;;;;;5114397;28;20036;-84
2024/01/24 00:02:31;;;;;;;24.17;3.85;;;10.50;99.90;;;;;;5114793;27;20101;-84
2024/01/24 00:04:56;;;;;;;14.10;3.30;;;10.90;99.90;;;;;;5115222;28;20035;-82
2024/01/24 00:07:22;;;;;;;32.25;4.18;;;10.50;99.90;;;;;;5115385;28;20140;-84
2024/01/24 00:09:48;;;;;;;24.35;3.50;;;10.50;99.90;;;;;;5115000;28;20503;-83
2024/01/24 00:12:13;;;;;;;23.92;3.85;;;11.00;99.90;;;;;;5113519;28;20036;-82
2024/01/24 00:14:39;;;;;;;21.48;2.97;;;10.50;99.90;;;;;;5113524;28;20035;-83
2024/01/24 00:17:05;;;;;;;26.48;3.45;;;10.50;99.90;;;;;;5096646;28;20036;-84
2024/01/24 00:19:31;;;;;;;24.63;3.83;;;10.50;99.90;;;;;;5113910;28;20073;-83
2024/01/24 00:21:57;;;;;;;17.92;4.20;;;10.60;99.90;;;;;;5113577;28;20104;-82
2024/01/24 00:24:22;;;;;;;18.30;3.40;;;10.60;99.90;;;;;;5114802;28;20047;-83
2024/01/24 00:26:48;;;;;;;17.52;3.58;;;9.90;99.90;;;;;;5113385;28;20075;-85
2024/01/24 00:29:14;;;;;;;17.50;3.20;;;10.60;99.90;;;;;;5113356;28;20059;-83
2024/01/24 00:31:39;;;;;;;23.73;3.13;;;10.60;99.90;;;;;;5114537;28;20404;-84
2024/01/24 00:34:05;;;;;;;26.05;3.85;;;10.80;99.90;;;;;;5112952;28;20046;-84
2024/01/24 00:36:31;;;;;;;21.50;3.38;;;10.60;99.90;;;;;;5113071;28;20081;-83
2024/01/24 00:38:56;;;;;;;22.30;3.53;;;11.20;99.90;;;;;;5113313;28;20062;-84
2024/01/24 00:41:22;;;;;;;22.42;3.28;;;11.00;99.90;;;;;;5114727;28;20047;-83
2024/01/24 00:43:48;;;;;;;21.70;3.47;;;11.40;99.90;;;;;;5097146;28;20573;-83
2024/01/24 00:46:13;;;;;;;26.00;3.97;;;10.70;99.90;;;;;;5112804;28;20079;-83
2024/01/24 00:48:39;;;;;;;19.05;3.35;;;11.20;99.90;;;;;;5112985;28;20044;-84
2024/01/24 00:51:05;;;;;;;22.58;3.45;;;10.70;99.90;;;;;;5112919;28;20042;-85
2024/01/24 00:53:33;;;;;;;22.92;3.80;;;10.70;99.90;;;;;;5112719;28;20139;-84
2024/01/24 00:55:58;;;;;;;22.63;3.28;;;10.90;99.90;;;;;;5114441;28;20396;-84
2024/01/24 00:58:24;;;;;;;19.70;4.30;;;10.90;99.90;;;;;;5113996;28;20042;-84
2024/01/24 01:00:50;;;;;;;13.73;3.08;;;10.70;99.90;;;;;;5113301;28;20549;-83
2024/01/24 01:03:16;;;;;;;23.10;3.95;;;10.70;99.90;;;;;;5114310;28;20151;-83
2024/01/24 01:05:42;;;;;;;25.15;2.92;;;10.90;99.90;;;;;;5113901;28;20043;-83
2024/01/24 01:08:07;;;;;;;17.45;3.60;;;10.70;99.90;;;;;;5112558;28;20051;-84
2024/01/24 01:10:33;;;;;;;23.38;2.60;;;11.10;99.90;;;;;;5095986;28;20046;-84
2024/01/24 01:12:59;;;;;;;21.63;2.92;;;10.70;99.90;;;;;;5112455;28;20044;-84
2024/01/24 01:15:25;;;;;;;20.40;3.45;;;10.70;99.90;;;;;;5113086;28;20050;-84
2024/01/24 01:17:51;;;;;;;24.35;3.53;;;11.10;99.90;;;;;;5114155;27;20082;-84
2024/01/24 01:20:20;;;;;;;32.78;3.63;;;10.60;99.90;;;;;;5112288;28;20083;-84
2024/01/24 01:22:46;;;;;;;24.10;3.10;;;10.50;99.90;;;;;;5112562;28;20054;-83
2024/01/24 01:25:12;;;;;;;21.52;3.28;;;11.10;99.90;;;;;;5113805;28;20044;-83
2024/01/24 01:27:38;;;;;;;16.10;2.28;;;10.60;99.90;;;;;;5113846;28;20043;-83
2024/01/24 01:30:05;;;;;;;20.13;2.45;;;10.80;99.90;;;;;;5094977;28;20039;-84
2024/01/24 01:32:30;;;;;;;20.70;2.67;;;10.60;99.90;;;;;;5095605;28;20548;-85
2024/01/24 01:34:56;;;;;;;20.35;2.17;;;10.50;99.90;;;;;;5095743;28;20166;-83
2024/01/24 01:37:23;;;;;;;14.70;2.28;;;10.60;99.90;;;;;;5113719;28;20511;-84
2024/01/24 01:39:50;;;;;;;15.85;2.50;;;11.10;99.90;;;;;;5095260;28;20050;-84
2024/01/24 01:42:15;;;;;;;20.65;2.25;;;10.80;99.90;;;;;;5112209;28;20039;-84
2024/01/24 01:44:48;;;;;;;15.13;1.98;;;11.00;99.90;;;;;;5114089;28;20036;-84
2024/01/24 01:47:15;;;;;;;15.00;2.13;;;10.80;99.90;;;;;;5113506;28;20036;-84
2024/01/24 01:49:44;;;;;;;13.45;2.40;;;10.90;99.90;;;;;;5112450;28;20123;-85
2024/01/24 01:52:10;;;;;;;17.48;2.38;;;10.80;99.90;;;;;;5113543;28;20097;-87
2024/01/24 01:54:38;;;;;;;16.60;2.85;;;11.10;99.90;;;;;;5112458;28;20047;-83
2024/01/24 01:57:05;;;;;;;20.42;2.25;;;10.90;99.90;;;;;;5095180;28;20042;-84
2024/01/24 01:59:31;;;;;;;16.23;2.55;;;10.90;99.90;;;;;;5113446;28;20155;-83
2024/01/24 02:02:00;;;;;;;19.50;2.20;;;11.00;99.90;;;;;;5111617;28;20122;-84
2024/01/24 02:04:26;;;;;;;17.30;2.55;;;11.10;99.90;;;;;;5095677;28;20045;-84
2024/01/24 02:06:53;;;;;;;10.45;2.05;;;11.10;99.90;;;;;;5116817;28;20141;-84
2024/01/24 02:09:18;;;;;;;14.18;1.90;;;11.10;99.90;;;;;;5133897;27;20083;-85
2024/01/24 02:11:44;;;;;;;12.25;1.88;;;11.40;99.90;;;;;;5116405;28;20601;-85
2024/01/24 02:14:11;;;;;;;16.52;1.92;;;12.10;99.90;;;;;;5099184;28;20405;-85
2024/01/24 02:16:36;;;;;;;19.95;1.92;;;11.10;99.90;;;;;;5117231;28;20051;-85
2024/01/24 02:19:04;;;;;;;12.15;1.85;;;10.80;99.90;;;;;;5116149;28;20048;-84
2024/01/24 02:21:30;;;;;;;12.98;1.90;;;11.00;99.90;;;;;;5115742;28;20035;-84
2024/01/24 02:23:58;;;;;;;13.13;2.42;;;11.20;99.90;;;;;;5117507;28;20043;-85
2024/01/24 02:26:24;;;;;;;7.93;1.30;;;11.30;99.90;;;;;;5116950;28;20516;-86
2024/01/24 02:28:49;;;;;;;21.50;2.22;;;10.70;99.90;;;;;;5115926;28;20055;-84
2024/01/24 02:31:15;;;;;;;13.80;1.92;;;11.10;99.90;;;;;;5116201;28;20039;-86
2024/01/24 02:33:41;;;;;;;17.50;2.72;;;11.10;99.90;;;;;;5116278;28;20035;-85
2024/01/24 02:36:06;;;;;;;14.38;1.65;;;11.10;99.90;;;;;;5116688;28;20046;-85
2024/01/24 02:38:32;;;;;;;13.25;1.70;;;11.20;99.90;;;;;;5117391;28;20100;-85
2024/01/24 02:40:58;;;;;;;15.68;2.38;;;11.20;99.90;;;;;;5098727;28;20028;-86
2024/01/24 02:43:23;;;;;;;20.23;2.30;;;11.10;99.90;;;;;;5117337;28;20408;-86
2024/01/24 02:45:49;;;;;;;14.00;2.10;;;11.10;99.90;;;;;;5116131;28;20395;-84
2024/01/24 02:48:15;;;;;;;14.00;2.17;;;11.10;99.90;;;;;;5098615;28;20043;-86
2024/01/24 02:50:41;;;;;;;17.70;1.80;;;11.10;99.90;;;;;;5117100;28;20383;-86
2024/01/24 02:53:07;;;;;;;15.75;2.03;;;11.40;99.90;;;;;;5117212;28;20039;-87
2024/01/24 02:55:33;;;;;;;16.65;2.47;;;11.10;99.90;;;;;;5116699;28;20043;-85
2024/01/24 02:57:59;;;;;;;17.77;1.85;;;12.00;99.90;;;;;;5115463;28;20089;-85
2024/01/24 03:00:24;;;;;;;16.63;2.22;;;11.20;99.90;;;;;;5115741;28;20043;-84
2024/01/24 03:02:50;;;;;;;12.20;2.22;;;10.90;99.90;;;;;;5116802;28;20043;-84
2024/01/24 03:05:16;;;;;;;18.85;2.70;;;10.80;99.90;;;;;;5115178;28;20044;-84
2024/01/24 03:07:42;;;;;;;16.70;2.30;;;11.10;99.90;;;;;;5115496;28;20415;-85
2024/01/24 03:10:10;;;;;;;13.63;1.80;;;11.30;99.90;;;;;;5115450;28;20396;-84
2024/01/24 03:12:37;;;;;;;19.55;2.70;;;11.00;99.90;;;;;;5115609;28;20048;-86
2024/01/24 03:15:03;;;;;;;15.38;2.45;;;10.90;99.90;;;;;;5114877;28;20534;-84
2024/01/24 03:17:29;;;;;;;19.75;2.55;;;10.90;99.90;;;;;;5116520;28;20097;-84
2024/01/24 03:19:55;;;;;;;16.85;2.10;;;11.10;99.90;;;;;;5097719;28;20468;-84
2024/01/24 03:22:20;;;;;;;24.23;3.05;;;11.30;99.90;;;;;;5115192;28;20389;-85
2024/01/24 03:24:46;;;;;;;17.08;2.60;;;10.70;99.90;;;;;;5116657;28;20384;-84
2024/01/24 03:27:12;;;;;;;21.55;2.97;;;11.20;99.90;;;;;;5115972;28;20040;-86
2024/01/24 03:29:37;;;;;;;20.77;3.00;;;10.70;99.90;;;;;;5114101;28;20035;-85
2024/01/24 03:32:03;;;;;;;18.80;2.75;;;11.00;99.90;;;;;;5096063;28;20538;-89
2024/01/24 03:34:30;;;;;;;15.82;2.97;;;10.60;99.90;;;;;;5114885;28;20043;-88
2024/01/24 03:36:56;;;;;;;16.98;2.85;;;11.20;99.90;;;;;;5113974;28;20047;-86
2024/01/24 03:39:22;;;;;;;23.55;3.67;;;10.80;99.90;;;;;;5113977;28;20374;-88
2024/01/24 03:41:47;;;;;;;22.52;2.67;;;11.40;99.90;;;;;;5115113;28;20092;-85
2024/01/24 03:44:13;;;;;;;26.25;3.33;;;10.50;99.90;;;;;;5113347;28;20514;-85
2024/01/24 03:46:38;;;;;;;21.75;3.17;;;11.70;99.90;;;;;;5113591;28;20047;-85
2024/01/24 03:49:06;;;;;;;26.42;3.33;;;10.50;99.90;;;;;;5113190;28;20045;-86
2024/01/24 03:51:32;;;;;;;25.60;3.00;;;10.50;99.90;;;;;;5113483;28;20055;-87
2024/01/24 03:53:58;;;;;;;21.10;3.58;;;10.60;99.90;;;;;;5113488;28;20058;-87
2024/01/24 03:56:24;;;;;;;24.15;3.78;;;11.00;99.90;;;;;;5114999;28;20039;-87
2024/01/24 03:58:49;;;;;;;21.55;3.85;;;11.20;99.90;;;;;;5113691;28;20059;-87
2024/01/24 04:01:16;;;;;;;19.27;3.05;;;11.00;99.90;;;;;;5113506;28;20104;-86
2024/01/24 04:03:41;;;;;;;25.88;4.28;;;10.60;99.90;;;;;;5114222;28;20039;-84
2024/01/24 04:06:07;;;;;;;20.50;3.80;;;11.70;99.90;;;;;;5113511;28;20048;-87
2024/01/24 04:08:33;;;;;;;23.88;4.00;;;11.00;99.90;;;;;;5113274;28;20069;-87
2024/01/24 04:10:58;;;;;;;18.17;3.55;;;11.50;99.90;;;;;;5114622;28;20055;-86
2024/01/24 04:13:24;;;;;;;33.15;3.58;;;10.40;99.90;;;;;;5113351;28;20040;-88
2024/01/24 04:15:50;;;;;;;27.83;3.78;;;10.30;99.90;;;;;;5114666;28;20039;-87
2024/01/24 04:18:16;;;;;;;22.77;3.67;;;11.20;99.90;;;;;;5112677;28;20042;-87
2024/01/24 04:20:41;;;;;;;21.42;3.95;;;10.50;99.90;;;;;;5113084;28;20043;-88
2024/01/24 04:23:07;;;;;;;22.17;3.95;;;10.70;99.90;;;;;;5095805;28;20070;-86
2024/01/24 04:25:33;;;;;;;29.55;4.30;;;10.50;99.90;;;;;;5112983;28;20462;-87
2024/01/24 04:27:58;;;;;;;16.27;3.97;;;10.50;99.90;;;;;;5094751;28;20401;-86
2024/01/24 04:30:24;;;;;;;24.23;3.83;;;10.50;99.90;;;;;;5058093;28;1102707;-87
2024/01/24 04:32:50;;;;;;;25.55;4.50;;;10.50;99.90;;;;;;5096380;28;20039;-87
2024/01/24 04:35:15;;;;;;;24.55;4.13;;;10.50;99.90;;;;;;5115351;28;20044;-88
2024/01/24 04:37:41;;;;;;;28.50;3.38;;;10.60;99.90;;;;;;5115109;28;20065;-87
2024/01/24 04:40:07;;;;;;;25.58;4.07;;;11.20;99.90;;;;;;5113859;28;20089;-88
2024/01/24 04:42:33;;;;;;;26.23;4.22;;;10.50;99.90;;;;;;5113941;28;20490;-86
2024/01/24 04:44:59;;;;;;;27.42;4.50;;;10.60;99.90;;;;;;5114375;28;20047;-87
2024/01/24 04:47:24;;;;;;;34.10;4.32;;;10.60;99.90;;;;;;5115199;28;20044;-87
2024/01/24 04:49:50;;;;;;;22.95;3.55;;;10.40;99.90;;;;;;5113819;28;20122;-86
2024/01/24 04:52:16;;;;;;;32.28;4.80;;;10.70;99.90;;;;;;5114780;28;20043;-87
2024/01/24 04:54:42;;;;;;;34.80;5.50;;;10.90;99.90;;;;;;5113093;28;20036;-89
2024/01/24 04:57:07;;;;;;;33.47;5.07;;;10.30;99.90;;;;;;5113704;28;20043;-88
2024/01/24 04:59:33;;;;;;;31.67;5.38;;;10.30;99.90;;;;;;5113314;28;20046;-88
2024/01/24 05:01:59;;;;;;;27.23;4.20;;;10.50;99.90;;;;;;5114761;28;20054;-88
2024/01/24 05:04:25;;;;;;;35.90;5.35;;;10.00;99.90;;;;;;5114252;28;20120;-88
2024/01/24 05:06:50;;;;;;;33.17;5.00;;;10.40;99.90;;;;;;5113130;28;20044;-86
2024/01/24 05:09:16;;;;;;;31.23;5.03;;;10.20;99.90;;;;;;5114189;28;20035;-86
2024/01/24 05:11:42;;;;;;;34.00;5.30;;;10.70;99.90;;;;;;5113215;28;20048;-88
2024/01/24 05:14:08;;;;;;;34.92;5.70;;;11.10;99.90;;;;;;5113243;28;20047;-87
2024/01/24 05:16:33;;;;;;;38.22;6.43;;;10.20;99.90;;;;;;5096113;28;20506;-84
2024/01/24 05:18:59;;;;;;;35.50;5.60;;;10.10;99.90;;;;;;5113305;28;20385;-86
2024/01/24 05:21:25;;;;;;;25.77;4.13;;;10.10;99.90;;;;;;5114447;28;20047;-86
2024/01/24 05:23:52;;;;;;;40.05;6.75;;;9.90;99.90;;;;;;5114283;28;20119;-86
2024/01/24 05:26:18;;;;;;;23.08;4.63;;;10.40;99.90;;;;;;5114024;27;20090;-87
2024/01/24 05:28:43;;;;;;;42.42;6.03;;;10.10;99.90;;;;;;5113691;28;20089;-86
2024/01/24 05:31:09;;;;;;;30.30;6.07;;;10.50;99.90;;;;;;5095869;28;20127;-87
2024/01/24 05:33:35;;;;;;;35.47;6.05;;;10.20;99.90;;;;;;5112574;28;20040;-87
2024/01/24 05:36:01;;;;;;;29.00;5.22;;;10.00;99.90;;;;;;5112775;28;20036;-87
2024/01/24 05:38:27;;;;;;;35.20;5.38;;;9.90;99.90;;;;;;5095574;28;20035;-87
2024/01/24 05:40:53;;;;;;;41.03;8.00;;;10.10;99.90;;;;;;5113343;28;20558;-87
2024/01/24 05:43:18;;;;;;;39.97;7.25;;;10.70;99.90;;;;;;5113654;28;20141;-86
2024/01/24 05:45:44;;;;;;;40.22;6.28;;;9.80;99.90;;;;;;5112810;28;20035;-86
2024/01/24 05:48:14;;;;;;;38.05;6.78;;;10.60;99.90;;;;;;5113222;28;20036;-87
2024/01/24 05:50:39;;;;;;;44.20;7.95;;;9.90;99.90;;;;;;5113956;28;20135;-87
2024/01/24 05:53:05;;;;;;;41.15;6.63;;;9.80;99.90;;;;;;5113726;28;20047;-87
2024/01/24 05:55:30;;;;;;;36.75;6.90;;;10.20;99.90;;;;;;5113916;28;20123;-86
2024/01/24 05:57:56;;;;;;;49.45;6.70;;;9.90;99.90;;;;;;5112466;28;20124;-87
2024/01/24 06:00:22;;;;;;;37.42;6.28;;;9.80;99.90;;;;;;5113974;28;20138;-87
2024/01/24 06:02:48;;;;;;;46.03;7.32;;;9.70;99.90;;;;;;5112101;28;20551;-87
2024/01/24 06:05:15;;;;;;;37.55;7.20;;;9.70;99.90;;;;;;5095581;28;20389;-87
2024/01/24 06:07:41;;;;;;;41.30;6.72;;;10.40;99.90;;;;;;5112102;28;20073;-87
2024/01/24 06:10:07;;;;;;;42.20;7.40;;;9.30;99.90;;;;;;5113917;28;20039;-87
2024/01/24 06:12:33;;;;;;;43.92;6.80;;;9.60;99.90;;;;;;5112357;28;20111;-88
2024/01/24 06:14:58;;;;;;;54.35;8.18;;;9.70;99.90;;;;;;5112393;28;20431;-86
2024/01/24 06:17:24;;;;;;;44.30;7.78;;;10.10;99.90;;;;;;5112764;28;20044;-85
2024/01/24 06:19:51;;;;;;;48.75;7.65;;;9.90;99.90;;;;;;5122356;28;20036;-87
2024/01/24 06:22:17;;;;;;;39.28;6.55;;;10.00;99.90;;;;;;5115493;28;20138;-85
2024/01/24 06:24:44;;;;;;;39.53;7.00;;;9.60;99.90;;;;;;5113239;28;20071;-84
2024/01/24 06:27:10;;;;;;;55.63;7.70;;;10.50;99.90;;;;;;5112922;28;20089;-84
2024/01/24 06:29:36;;;;;;;44.42;6.95;;;9.80;99.90;;;;;;5111956;28;20128;-84
2024/01/24 06:32:02;;;;;;;46.47;8.55;;;9.30;99.90;;;;;;5113480;28;20524;-84
2024/01/24 06:34:27;;;;;;;36.72;6.60;;;9.50;99.90;;;;;;5113590;28;20039;-84
2024/01/24 06:36:53;;;;;;;38.88;6.93;;;9.50;99.90;;;;;;5113314;28;20088;-83
2024/01/24 06:39:19;;;;;;;38.05;7.10;;;9.30;99.90;;;;;;5112961;28;20036;-85
2024/01/24 06:41:44;;;;;;;45.28;6.82;;;9.40;99.90;;;;;;5112953;28;20124;-85
2024/01/24 06:44:10;;;;;;;36.67;6.78;;;9.20;99.90;;;;;;5112039;28;20039;-85
2024/01/24 06:46:43;;;;;;;36.17;6.82;;;9.40;99.90;;;;;;5113112;28;20062;-84
2024/01/24 06:49:10;;;;;;;44.53;7.00;;;9.30;99.90;;;;;;5112043;28;20047;-85
2024/01/24 06:51:37;;;;;;;40.40;6.95;;;9.40;99.90;;;;;;5115971;28;20039;-86
2024/01/24 06:54:04;;;;;;;34.25;6.32;;;9.40;99.90;;;;;;5115567;28;20058;-87
2024/01/24 06:56:30;;;;;;;40.97;6.75;;;9.30;99.90;;;;;;5115719;28;20462;-86
2024/01/24 06:58:55;;;;;;;51.30;8.18;;;10.60;99.90;;;;;;5115622;28;20101;-87
2024/01/24 07:01:21;;;;;;;41.13;7.25;;;9.80;99.90;;;;;;5116118;28;20468;-86
2024/01/24 07:03:49;;;;;;;44.45;7.30;;;9.30;99.90;;;;;;5116932;28;20089;-86
2024/01/24 07:06:15;;;;;;;49.15;7.40;;;10.70;99.90;;;;;;5116577;28;20088;-87
2024/01/24 07:08:41;;;;;;;34.55;7.10;;;9.30;99.90;;;;;;5098801;28;20442;-86
2024/01/24 07:11:07;;;;;;;39.15;7.00;;;9.30;99.90;;;;;;5115704;28;20085;-85
2024/01/24 07:13:33;;;;;;;52.22;9.15;;;9.30;99.90;;;;;;5098161;28;20134;-87
2024/01/24 07:16:04;;;;;;;44.85;6.82;;;9.20;99.90;;;;;;5115227;28;20050;-86
2024/01/24 07:18:31;;;;;;;38.65;5.93;;;9.50;99.90;;;;;;5114966;28;20480;-87
2024/01/24 07:20:57;;;;;;;38.00;6.25;;;10.40;99.90;;;;;;5115651;28;20059;-86
2024/01/24 07:23:23;;;;;;;40.50;7.05;;;10.10;99.90;;;;;;5117121;28;20040;-88
2024/01/24 07:25:48;;;;;;;42.92;6.55;;;10.40;99.90;;;;;;5114109;28;20376;-87
2024/01/24 07:28:14;;;;;;;37.55;6.65;;;9.20;99.90;;;;;;5113828;28;20046;-88
2024/01/24 07:30:40;;;;;;;40.65;7.45;;;9.40;99.90;;;;;;5116345;28;20123;-85
2024/01/24 07:33:06;;;;;;;32.65;6.75;;;9.20;99.90;;;;;;5114859;28;20486;-86
2024/01/24 07:35:31;;;;;;;37.83;7.03;;;9.50;99.90;;;;;;5116073;28;20079;-87
2024/01/24 07:37:57;;;;;;;41.30;7.43;;;8.90;99.90;;;;;;5118518;28;20039;-86
2024/01/24 07:40:24;;;;;;;34.75;6.47;;;10.50;99.90;;;;;;5121949;28;20096;-87
2024/01/24 07:42:50;;;;;;;36.38;6.72;;;9.20;99.90;;;;;;5121983;27;20044;-87
2024/01/24 07:45:16;;;;;;;35.88;7.07;;;9.90;99.90;;;;;;5115587;28;20150;-85
2024/01/24 07:47:42;;;;;;;46.85;5.95;;;9.10;99.90;;;;;;5115934;28;20122;-86
2024/01/24 07:50:08;;;;;;;38.67;5.55;;;9.10;99.90;;;;;;5114438;28;20399;-87
2024/01/24 07:52:34;;;;;;;45.33;6.35;;;9.10;99.90;;;;;;5115015;28;20040;-87
2024/01/24 07:54:59;;;;;;;36.38;6.60;;;9.40;99.90;;;;;;5114740;28;20043;-87
2024/01/24 07:57:25;;;;;;;42.75;6.43;;;9.10;99.90;;;;;;5114221;28;20055;-86
2024/01/24 07:59:51;;;;;;;35.78;5.30;;;9.10;99.90;;;;;;5115007;28;20047;-87
2024/01/24 08:02:16;;;;;;;35.97;7.38;;;9.30;99.90;;;;;;5114180;28;20476;-86
2024/01/24 08:04:42;;;;;;;31.27;6.25;;;9.60;99.90;;;;;;5114679;28;20051;-87
2024/01/24 08:07:08;;;;;;;41.28;7.50;;;9.20;99.90;;;;;;5115702;28;20048;-87
2024/01/24 08:09:34;;;;;;;40.20;7.88;;;9.30;99.90;;;;;;5114265;28;20090;-85
2024/01/24 08:12:00;;;;;;;36.85;6.43;;;10.30;99.90;;;;;;5115368;28;20543;-84
2024/01/24 08:14:26;;;;;;;34.13;6.18;;;9.10;99.90;;;;;;5114341;28;20043;-86
2024/01/24 08:17:05;;;;;;;37.05;6.97;;;9.20;99.90;;;;;;5115243;28;20051;-84
2024/01/24 08:19:31;;;;;;;39.08;7.00;;;9.40;99.90;;;;;;5114203;28;20048;-84
2024/01/24 08:21:57;;;;;;;38.53;7.95;;;9.70;99.90;;;;;;5115099;28;20055;-84
2024/01/24 08:24:23;;;;;;;45.65;6.50;;;9.10;99.90;;;;;;5096848;28;20044;-84
2024/01/24 08:26:50;;;;;;;43.05;7.38;;;9.60;99.90;;;;;;5114786;28;20509;-85
2024/01/24 08:29:16;;;;;;;38.17;7.07;;;9.20;99.90;;;;;;5096088;28;20109;-83
2024/01/24 08:31:42;;;;;;;39.20;6.53;;;9.20;99.90;;;;;;5115147;28;20048;-84
2024/01/24 08:34:08;;;;;;;42.85;7.15;;;9.10;99.90;;;;;;5114849;27;20042;-83
2024/01/24 08:36:33;;;;;;;44.85;7.68;;;10.00;99.90;;;;;;5113153;28;20040;-83
2024/01/24 08:38:59;;;;;;;41.03;7.30;;;9.50;99.90;;;;;;5096716;28;20130;-84
2024/01/24 08:41:25;;;;;;;51.67;8.20;;;9.20;99.90;;;;;;5113678;28;20430;-84
2024/01/24 08:43:52;;;;;;;41.20;7.15;;;8.90;99.90;;;;;;5113428;28;20039;-84
2024/01/24 08:46:18;;;;;;;41.95;7.60;;;9.50;99.90;;;;;;5113194;28;20043;-83
2024/01/24 08:48:43;;;;;;;40.25;6.82;;;10.00;99.90;;;;;;5113155;28;20047;-83
2024/01/24 08:51:09;;;;;;;47.20;7.00;;;9.70;99.90;;;;;;5096113;28;20504;-83
2024/01/24 08:53:37;;;;;;;33.17;6.03;;;9.80;99.90;;;;;;5114398;28;20506;-83
2024/01/24 08:56:03;;;;;;;45.72;6.85;;;9.20;99.90;;;;;;5113018;28;20491;-83
2024/01/24 08:58:30;;;;;;;33.33;5.72;;;9.20;99.90;;;;;;5112989;28;20149;-84
2024/01/24 09:00:55;;;;;;;38.53;6.68;;;9.60;99.90;;;;;;5114301;28;20066;-83
2024/01/24 09:03:21;;;;;;;35.15;6.57;;;8.90;99.90;;;;;;5112874;28;20859;-84
2024/01/24 09:05:46;;;;;;;33.45;6.18;;;9.20;99.90;;;;;;5113024;28;20116;-83
2024/01/24 09:08:14;;;;;;;44.25;7.00;;;9.40;99.90;;;;;;5112674;28;20139;-82
2024/01/24 09:10:39;;;;;;;47.65;7.50;;;9.20;99.90;;;;;;5095084;28;20051;-83
2024/01/24 09:13:06;;;;;;;36.35;7.13;;;10.00;99.90;;;;;;5113369;28;20047;-82
2024/01/24 09:15:31;;;;;;;38.40;6.75;;;9.30;99.90;;;;;;5114687;27;20126;-84
2024/01/24 09:17:57;;;;;;;38.10;6.28;;;10.10;99.90;;;;;;5113100;28;20417;-83
2024/01/24 09:20:23;;;;;;;36.63;6.78;;;9.80;99.90;;;;;;5112727;28;20420;-83
2024/01/24 09:22:49;;;;;;;44.13;7.88;;;9.30;99.90;;;;;;5095158;28;20047;-83
2024/01/24 09:25:16;;;;;;;46.65;6.45;;;10.00;99.90;;;;;;5112791;28;20397;-83
2024/01/24 09:27:42;;;;;;;43.20;6.65;;;9.30;99.90;;;;;;5095743;28;20054;-83
2024/01/24 09:30:08;;;;;;;48.83;8.23;;;10.60;99.90;;;;;;5112397;28;20051;-83
2024/01/24 09:32:34;;;;;;;40.75;6.55;;;9.40;99.90;;;;;;5095357;28;20055;-83
2024/01/24 09:34:59;;;;;;;35.65;6.03;;;9.40;99.90;;;;;;5113700;28;20039;-83
2024/01/24 09:37:27;;;;;;;47.67;6.53;;;9.50;99.90;;;;;;5112300;28;20048;-83
2024/01/24 09:39:52;;;;;;;29.83;6.07;;;10.40;99.90;;;;;;5113890;28;20511;-83
2024/01/24 09:42:25;;;;;;;43.70;6.85;;;10.20;99.90;;;;;;5112214;28;20089;-84
2024/01/24 09:44:51;;;;;;;46.17;7.35;;;9.80;99.90;;;;;;5110994;28;20039;-83
2024/01/24 09:47:19;;;;;;;42.00;6.78;;;9.80;99.90;;;;;;5111133;28;20048;-83
2024/01/24 09:49:46;;;;;;;39.97;6.97;;;9.50;99.90;;;;;;5093383;28;20048;-84
2024/01/24 09:52:18;;;;;;;33.78;5.95;;;9.60;99.90;;;;;;5082164;28;20476;-84
2024/01/24 09:54:45;;;;;;;43.55;6.75;;;9.60;99.90;;;;;;5112223;28;20400;-84
2024/01/24 09:57:12;;;;;;;49.70;6.95;;;10.10;99.90;;;;;;5112188;28;20403;-84
2024/01/24 09:59:38;;;;;;;41.03;6.97;;;10.20;99.90;;;;;;5112058;28;20040;-84
2024/01/24 10:02:06;;;;;;;38.40;6.30;;;9.70;99.90;;;;;;5113796;28;20381;-83
2024/01/24 10:04:37;;;;;;;41.42;6.95;;;9.60;99.90;;;;;;5112130;28;20043;-82
2024/01/24 10:07:06;;;;;;;42.13;6.80;;;9.80;99.90;;;;;;5111624;28;20054;-84
2024/01/24 10:09:32;;;;;;;37.78;6.32;;;9.80;99.90;;;;;;5112093;28;20059;-83
2024/01/24 10:11:58;;;;;;;42.70;6.82;;;9.80;99.90;;;;;;5110522;28;20146;-83
2024/01/24 10:14:24;;;;;;;41.25;7.03;;;10.20;99.90;;;;;;5111913;28;20039;-83
2024/01/24 10:16:50;;;;;;;36.20;6.72;;;10.10;99.90;;;;;;5111067;28;20039;-83
2024/01/24 10:19:24;;;;;;;41.10;6.88;;;9.80;99.90;;;;;;5112260;28;20040;-84
2024/01/24 10:21:51;;;;;;;34.08;5.60;;;10.00;99.90;;;;;;5113386;28;20449;-83
2024/01/24 10:24:17;;;;;;;37.65;6.53;;;10.00;99.90;;;;;;5113362;28;20035;-84
2024/01/24 10:26:46;;;;;;;33.17;6.10;;;10.00;99.90;;;;;;5114571;28;20495;-83
2024/01/24 10:29:12;;;;;;;42.67;6.32;;;10.10;99.90;;;;;;5116950;28;20044;-83
2024/01/24 10:31:38;;;;;;;45.42;6.28;;;10.10;99.90;;;;;;5115096;28;20089;-83
2024/01/24 10:34:04;;;;;;;38.55;5.95;;;10.00;99.90;;;;;;5116480;28;20488;-83
2024/01/24 10:36:30;;;;;;;33.58;6.03;;;9.80;99.90;;;;;;5117297;28;20047;-84
2024/01/24 10:39:03;;;;;;;31.92;5.63;;;11.00;99.90;;;;;;5116971;28;20036;-84
2024/01/24 10:41:31;;;;;;;37.38;6.55;;;10.80;99.90;;;;;;5133007;27;20044;-83
2024/01/24 10:44:02;;;;;;;38.95;5.82;;;10.10;99.90;;;;;;5117193;28;20040;-83
2024/01/24 10:46:29;;;;;;;35.75;5.75;;;10.10;99.90;;;;;;5098794;28;20050;-83
2024/01/24 10:48:54;;;;;;;35.97;5.25;;;10.60;99.90;;;;;;5116202;28;20043;-83
2024/01/24 10:51:20;;;;;;;40.33;5.72;;;10.10;99.90;;;;;;5120239;27;20081;-82
2024/01/24 10:53:48;;;;;;;27.35;6.45;;;10.20;99.90;;;;;;5136400;27;20039;-83
2024/01/24 10:56:15;;;;;;;32.50;5.78;;;10.20;99.90;;;;;;5137466;27;20403;-83
2024/01/24 10:58:42;;;;;;;39.70;6.20;;;9.90;99.90;;;;;;5136387;27;20097;-83
2024/01/24 11:01:08;;;;;;;36.85;5.53;;;10.10;99.90;;;;;;5123331;27;20559;-84
2024/01/24 11:03:34;;;;;;;32.10;6.18;;;11.20;99.90;;;;;;5114927;28;20046;-83
2024/01/24 11:06:05;;;;;;;30.08;5.63;;;10.10;99.90;;;;;;5115324;28;20126;-83
2024/01/24 11:08:48;;;;;;;35.20;4.93;;;10.20;99.90;;;;;;5114206;28;20044;-84
2024/01/24 11:11:17;;;;;;;39.72;6.13;;;10.20;99.90;;;;;;5098296;28;20047;-82
2024/01/24 11:13:43;;;;;;;37.33;5.78;;;10.40;99.90;;;;;;5116499;28;20104;-83
2024/01/24 11:16:29;;;;;;;26.70;4.97;;;10.10;99.90;;;;;;5115079;28;20070;-83
2024/01/24 11:18:59;;;;;;;;;;;10.20;99.90;;;;;;5114447;28;20043;-82
2024/01/24 11:21:28;;;;;;;31.63;5.25;;;10.20;99.90;;;;;;5115027;28;19916;-83
2024/01/24 11:23:54;;;;;;;31.33;5.55;;;10.30;99.90;;;;;;5097736;28;20043;-83
2024/01/24 11:26:19;;;;;;;24.75;4.45;;;10.90;99.90;;;;;;5114813;28;20043;-83
2024/01/24 11:28:46;;;;;;;31.33;5.82;;;10.50;99.90;;;;;;5114333;28;20052;-83
2024/01/24 11:31:13;;;;;;;33.30;5.53;;;10.30;99.90;;;;;;5097092;28;20044;-85
2024/01/24 11:34:06;;;;;;;35.80;5.65;;;10.30;99.90;;;;;;5114682;28;20040;-84
2024/01/24 11:36:39;;;;;;;37.67;5.60;;;10.30;99.90;;;;;;5095553;28;20044;-84
2024/01/24 11:39:31;;;;;;;34.38;5.63;;;10.50;99.90;;;;;;5077491;28;20067;-84
2024/01/24 11:42:30;;;;;;;32.85;5.60;;;10.30;99.90;;;;;;5095377;28;20072;-84
2024/01/24 11:45:15;;;;;;;30.27;5.55;;;10.30;99.90;;;;;;5077228;28;20481;-84
2024/01/24 11:47:41;;;;;;;34.17;6.18;;;10.30;99.90;;;;;;5095705;28;20458;-84
2024/01/24 11:50:08;;;;;;;34.08;6.03;;;10.30;99.90;;;;;;5097042;28;20086;-83
2024/01/24 11:52:34;;;;;;;31.08;6.90;;;10.30;99.90;;;;;;5094145;28;20048;-84
2024/01/24 11:54:59;;;;;;;30.60;5.50;;;9.90;99.90;;;;;;5094268;28;20044;-84
2024/01/24 11:57:27;;;;;;;42.60;6.10;;;10.20;99.90;;;;;;5093796;28;20488;-83
2024/01/24 11:59:53;;;;;;;36.47;5.68;;;10.20;99.90;;;;;;5111020;28;20468;-84
2024/01/24 12:02:19;;;;;;;30.63;5.97;;;10.80;99.90;;;;;;5114372;28;20082;-83
2024/01/24 12:04:48;;;;;;;31.25;6.13;;;10.20;99.90;;;;;;5115511;28;20118;-83
2024/01/24 12:07:14;;;;;;;33.47;5.70;;;10.50;99.90;;;;;;5115345;28;20091;-83
2024/01/24 12:09:40;;;;;;;36.25;5.90;;;10.20;99.90;;;;;;5113978;28;20074;-82
2024/01/24 12:12:07;;;;;;;43.15;6.45;;;10.30;99.90;;;;;;5112893;28;20039;-83
2024/01/24 12:14:33;;;;;;;33.22;5.70;;;10.10;99.90;;;;;;5114620;28;20117;-83
2024/01/24 12:17:00;;;;;;;39.83;5.65;;;10.10;99.90;;;;;;5096898;28;20095;-83
2024/01/24 12:19:26;;;;;;;37.42;6.40;;;10.20;99.90;;;;;;5114367;27;20039;-82
2024/01/24 12:21:52;;;;;;;38.92;6.03;;;10.30;99.90;;;;;;5114733;28;20054;-83
2024/01/24 12:24:17;;;;;;;37.75;5.97;;;10.10;99.90;;;;;;5096977;28;20100;-83
2024/01/24 12:26:43;;;;;;;37.92;6.70;;;10.10;99.90;;;;;;5114804;28;20058;-84
2024/01/24 12:29:09;;;;;;;35.00;5.93;;;10.10;99.90;;;;;;5114743;28;20063;-85
2024/01/24 12:31:38;;;;;;;31.90;6.28;;;10.10;99.90;;;;;;5097390;28;20044;-84
2024/01/24 12:34:08;;;;;;;43.88;7.63;;;10.60;99.90;;;;;;5117352;28;20043;-82
2024/01/24 12:36:34;;;;;;;42.92;6.60;;;10.20;99.90;;;;;;5110587;27;20113;-82